Flight Track Log - Related Links

Times and Time Zones

All times are in EDT time to prevent confusion due to time zone crossing. See the KAP291 flight status page for this flight to view local times or setup timezone preferences in your user account.


Time Position Orientation Groundspeed Altitude Reporting Facility
EDT Latitude Longitude Course Direction KTS MPH feet Rate Location/Type
Wed 05:41:03 PM 42.3500 -71.0167 180° South 118 136 300  Level KA90
Wed 05:41:39 PM 42.3333 -71.0167 180° South 114 131 800 625 Climbing KA90
Wed 05:42:39 PM 42.3000 -71.0333 200° South 130 150 1,300 496 Climbing KA90
Wed 05:43:40 PM 42.2667 -71.0167 160° South 135 155 1,800 470 Climbing KA90
Wed 05:44:34 PM 42.2333 -71.0000 160° South 137 158 2,200 474 Climbing KA90
Wed 05:45:34 PM 42.2000 -70.9667 143° Southeast 148 170 2,700 500 Climbing KA90
Wed 05:46:34 PM 42.1667 -70.9500 160° South 144 166 3,200 500 Climbing KA90
Wed 05:48:00 PM 42.1231 -70.9021 166° South  Level FlightAware Approximate
Wed 05:55:00 PM 41.8766 -70.7984 161° South  Level FlightAware Approximate
Wed 05:56:00 PM 41.8415 -70.7824 161° South  Level FlightAware Approximate
Wed 05:57:00 PM 41.8063 -70.7664 161° South  Level FlightAware Approximate
Wed 05:58:00 PM 41.7711 -70.7505 161° South  Level FlightAware Approximate
Wed 05:59:00 PM 41.7359 -70.7345 161° South  Level FlightAware Approximate
Wed 06:00:00 PM 41.7002 -70.7209 164° South  Level FlightAware Approximate
Wed 06:01:00 PM 41.6645 -70.7075 164° South  Level FlightAware Approximate
Wed 06:02:00 PM 41.6287 -70.6941 164° South  Level FlightAware Approximate
Wed 06:03:00 PM 41.5929 -70.6807 164° South  Level FlightAware Approximate
Wed 06:04:00 PM 41.5572 -70.6673 164° South  Level FlightAware Approximate
Wed 06:05:00 PM 41.5214 -70.6538 164° South  Level FlightAware Approximate
Wed 06:06:00 PM 41.4857 -70.6404 164° South  Level FlightAware Approximate
Wed 06:07:00 PM 41.4500 -70.6267 163° South  Level FlightAware Approximate
Wed 06:08:00 PM 41.4144 -70.6124 163° South  Level FlightAware Approximate

Login

Don't have an account? Register now (free) for customized features, flight alerts, and more!